sensor_id;sensor_type;location;lat;lon;timestamp;pressure;altitude;pressure_sealevel;temperature;humidity
5238;BME280;2639;49.700;7.962;2022-07-23T04:56:52;98862.66;;;19.33;100.00
5238;BME280;2639;49.700;7.962;2022-07-23T05:00:02;98873.47;;;19.43;100.00
5238;BME280;2639;49.700;7.962;2022-07-23T05:03:13;98882.47;;;19.51;100.00
5238;BME280;2639;49.700;7.962;2022-07-23T05:06:27;98897.34;;;19.53;100.00
5238;BME280;2639;49.700;7.962;2022-07-23T05:09:38;98898.38;;;19.57;100.00
5238;BME280;2639;49.700;7.962;2022-07-23T05:12:52;98900.03;;;19.55;100.00
5238;BME280;2639;49.700;7.962;2022-07-23T05:16:02;98900.09;;;19.57;100.00
5238;BME280;2639;49.700;7.962;2022-07-23T05:19:20;98909.16;;;19.66;100.00
5238;BME280;2639;49.700;7.962;2022-07-23T05:22:34;98913.91;;;19.75;100.00
5238;BME280;2639;49.700;7.962;2022-07-23T05:25:44;98918.47;;;19.81;100.00
5238;BME280;2639;49.700;7.962;2022-07-23T05:28:55;98920.50;;;19.88;100.00
5238;BME280;2639;49.700;7.962;2022-07-23T05:32:05;98925.00;;;19.92;100.00
5238;BME280;2639;49.700;7.962;2022-07-23T05:35:20;98911.69;;;20.07;100.00
5238;BME280;2639;49.700;7.962;2022-07-23T05:38:44;98904.59;;;20.25;100.00
5238;BME280;2639;49.700;7.962;2022-07-23T05:41:57;98911.13;;;20.36;100.00
5238;BME280;2639;49.700;7.962;2022-07-23T05:45:09;98895.47;;;20.36;100.00
5238;BME280;2639;49.700;7.962;2022-07-23T05:48:22;98902.41;;;20.36;100.00
5238;BME280;2639;49.700;7.962;2022-07-23T05:51:40;98902.59;;;20.41;100.00
5238;BME280;2639;49.700;7.962;2022-07-23T05:54:54;98889.03;;;20.51;100.00
5238;BME280;2639;49.700;7.962;2022-07-23T05:58:03;98888.84;;;20.45;100.00
5238;BME280;2639;49.700;7.962;2022-07-23T06:01:14;98892.38;;;20.47;100.00
5238;BME280;2639;49.700;7.962;2022-07-23T06:04:36;98882.94;;;20.50;100.00
5238;BME280;2639;49.700;7.962;2022-07-23T06:08:00;98887.38;;;20.53;100.00
5238;BME280;2639;49.700;7.962;2022-07-23T06:11:12;98888.47;;;20.58;100.00
5238;BME280;2639;49.700;7.962;2022-07-23T06:14:22;98894.63;;;20.60;100.00
5238;BME280;2639;49.700;7.962;2022-07-23T06:17:47;98895.94;;;20.71;100.00
5238;BME280;2639;49.700;7.962;2022-07-23T06:20:57;98896.38;;;20.84;99.91
5238;BME280;2639;49.700;7.962;2022-07-23T06:24:09;98903.66;;;20.92;97.21
5238;BME280;2639;49.700;7.962;2022-07-23T06:27:20;98909.38;;;21.06;96.39
5238;BME280;2639;49.700;7.962;2022-07-23T06:30:34;98918.38;;;21.14;94.76
5238;BME280;2639;49.700;7.962;2022-07-23T06:33:45;98921.88;;;21.15;95.46
5238;BME280;2639;49.700;7.962;2022-07-23T06:37:04;98931.84;;;21.27;95.90
5238;BME280;2639;49.700;7.962;2022-07-23T06:40:14;98930.88;;;21.47;93.64
5238;BME280;2639;49.700;7.962;2022-07-23T06:43:24;98926.91;;;21.58;92.18
5238;BME280;2639;49.700;7.962;2022-07-23T06:46:36;98933.66;;;21.79;91.54
5238;BME280;2639;49.700;7.962;2022-07-23T06:49:53;98939.97;;;21.85;90.75
5238;BME280;2639;49.700;7.962;2022-07-23T06:53:05;98939.81;;;21.81;89.71
5238;BME280;2639;49.700;7.962;2022-07-23T06:56:14;98933.78;;;21.82;90.53
5238;BME280;2639;49.700;7.962;2022-07-23T06:59:24;98933.72;;;21.80;90.96
5238;BME280;2639;49.700;7.962;2022-07-23T07:02:37;98939.81;;;21.81;90.71
5238;BME280;2639;49.700;7.962;2022-07-23T07:05:51;98938.59;;;21.97;88.70
5238;BME280;2639;49.700;7.962;2022-07-23T07:09:01;98938.63;;;22.24;87.89
5238;BME280;2639;49.700;7.962;2022-07-23T07:12:13;98936.41;;;22.36;86.41
5238;BME280;2639;49.700;7.962;2022-07-23T07:15:23;98943.97;;;22.27;86.51
5238;BME280;2639;49.700;7.962;2022-07-23T07:18:33;98947.50;;;22.29;86.94
5238;BME280;2639;49.700;7.962;2022-07-23T07:21:47;98943.22;;;22.31;86.28
5238;BME280;2639;49.700;7.962;2022-07-23T07:24:57;98941.53;;;22.62;84.26
5238;BME280;2639;49.700;7.962;2022-07-23T07:28:06;98941.88;;;22.74;82.23
5238;BME280;2639;49.700;7.962;2022-07-23T07:31:16;98950.88;;;22.82;83.70
5238;BME280;2639;49.700;7.962;2022-07-23T07:34:26;98954.69;;;22.94;82.82
5238;BME280;2639;49.700;7.962;2022-07-23T07:37:47;98958.69;;;23.11;83.62
5238;BME280;2639;49.700;7.962;2022-07-23T07:41:00;98963.69;;;23.34;81.72
5238;BME280;2639;49.700;7.962;2022-07-23T07:44:09;98963.06;;;23.44;80.93
5238;BME280;2639;49.700;7.962;2022-07-23T07:47:23;98968.66;;;23.56;77.94
5238;BME280;2639;49.700;7.962;2022-07-23T07:50:34;98967.69;;;23.52;78.57
5238;BME280;2639;49.700;7.962;2022-07-23T07:53:46;98972.72;;;23.45;80.74
5238;BME280;2639;49.700;7.962;2022-07-23T07:56:56;98974.47;;;23.44;80.04
5238;BME280;2639;49.700;7.962;2022-07-23T08:00:08;98978.97;;;23.50;80.07
5238;BME280;2639;49.700;7.962;2022-07-23T08:03:20;98974.06;;;23.62;80.08
5238;BME280;2639;49.700;7.962;2022-07-23T08:06:29;98972.59;;;23.73;79.26
5238;BME280;2639;49.700;7.962;2022-07-23T08:09:40;98976.13;;;23.74;77.53
5238;BME280;2639;49.700;7.962;2022-07-23T08:12:55;98979.81;;;23.81;78.57
5238;BME280;2639;49.700;7.962;2022-07-23T08:16:05;98980.03;;;23.90;75.74
5238;BME280;2639;49.700;7.962;2022-07-23T08:19:16;98986.38;;;23.98;75.25
5238;BME280;2639;49.700;7.962;2022-07-23T08:22:45;98985.53;;;23.99;73.98
5238;BME280;2639;49.700;7.962;2022-07-23T08:25:57;98989.00;;;23.98;75.52
5238;BME280;2639;49.700;7.962;2022-07-23T08:29:08;98989.53;;;24.20;74.85
5238;BME280;2639;49.700;7.962;2022-07-23T14:00:11;98913.84;;;30.94;43.59
5238;BME280;2639;49.700;7.962;2022-07-23T14:03:41;98909.38;;;30.97;43.83
5238;BME280;2639;49.700;7.962;2022-07-23T14:06:51;98912.06;;;30.93;43.50
5238;BME280;2639;49.700;7.962;2022-07-23T14:10:03;98912.09;;;30.74;43.89
5238;BME280;2639;49.700;7.962;2022-07-23T14:13:17;98910.41;;;30.55;43.49
5238;BME280;2639;49.700;7.962;2022-07-23T14:16:30;98908.69;;;30.17;44.33
5238;BME280;2639;49.700;7.962;2022-07-23T14:19:41;98908.72;;;30.02;44.02
5238;BME280;2639;49.700;7.962;2022-07-23T14:22:58;98908.53;;;30.81;43.36
5238;BME280;2639;49.700;7.962;2022-07-23T14:26:11;98892.81;;;31.93;40.73
5238;BME280;2639;49.700;7.962;2022-07-23T14:29:25;98899.16;;;31.75;41.78
5238;BME280;2639;49.700;7.962;2022-07-23T14:32:38;98908.28;;;31.37;42.07
5238;BME280;2639;49.700;7.962;2022-07-23T14:35:48;98903.22;;;30.98;41.85
5238;BME280;2639;49.700;7.962;2022-07-23T14:38:58;98899.75;;;30.70;44.02
5238;BME280;2639;49.700;7.962;2022-07-23T14:42:09;98902.44;;;30.56;43.03
5238;BME280;2639;49.700;7.962;2022-07-23T14:45:19;98898.72;;;31.07;42.13
5238;BME280;2639;49.700;7.962;2022-07-23T14:48:33;98890.81;;;31.02;42.26
5238;BME280;2639;49.700;7.962;2022-07-23T14:51:49;98908.66;;;30.57;42.58
5238;BME280;2639;49.700;7.962;2022-07-23T14:54:59;98912.25;;;30.13;43.80
5238;BME280;2639;49.700;7.962;2022-07-23T14:58:11;98919.34;;;29.83;43.34
5238;BME280;2639;49.700;7.962;2022-07-23T15:01:21;98913.97;;;29.49;44.96
5238;BME280;2639;49.700;7.962;2022-07-23T15:04:35;98908.69;;;29.49;44.44
5238;BME280;2639;49.700;7.962;2022-07-23T15:07:47;98896.38;;;29.91;43.93
5238;BME280;2639;49.700;7.962;2022-07-23T15:10:59;98901.56;;;30.56;42.97
5238;BME280;2639;49.700;7.962;2022-07-23T15:14:12;98894.59;;;30.29;43.14
5238;BME280;2639;49.700;7.962;2022-07-23T15:17:35;98906.97;;;29.97;43.33
5238;BME280;2639;49.700;7.962;2022-07-23T15:20:46;98899.03;;;29.90;43.87
5238;BME280;2639;49.700;7.962;2022-07-23T15:23:59;98901.66;;;30.00;43.29
5238;BME280;2639;49.700;7.962;2022-07-23T15:27:09;98896.28;;;30.56;42.77
5238;BME280;2639;49.700;7.962;2022-07-23T15:30:23;98896.13;;;30.96;42.52
5238;BME280;2639;49.700;7.962;2022-07-23T15:33:36;98907.69;;;30.72;42.73
5238;BME280;2639;49.700;7.962;2022-07-23T15:36:47;98899.88;;;30.30;43.13
5238;BME280;2639;49.700;7.962;2022-07-23T15:39:57;98910.50;;;29.93;43.20
5238;BME280;2639;49.700;7.962;2022-07-23T15:43:10;98905.19;;;29.75;43.78
5238;BME280;2639;49.700;7.962;2022-07-23T15:46:25;98913.97;;;29.58;44.03
5238;BME280;2639;49.700;7.962;2022-07-23T15:49:37;98907.81;;;29.41;45.30
5238;BME280;2639;49.700;7.962;2022-07-23T15:52:49;98908.66;;;29.37;45.51
5238;BME280;2639;49.700;7.962;2022-07-23T15:56:09;98908.69;;;29.48;45.02
5238;BME280;2639;49.700;7.962;2022-07-23T15:59:24;98906.03;;;29.63;45.02
5238;BME280;2639;49.700;7.962;2022-07-23T16:02:37;98898.06;;;30.48;44.29
5238;BME280;2639;49.700;7.962;2022-07-23T16:05:49;98888.88;;;31.25;41.70
5238;BME280;2639;49.700;7.962;2022-07-23T16:09:00;98886.88;;;31.64;41.21
5238;BME280;2639;49.700;7.962;2022-07-23T16:12:13;98885.66;;;32.05;40.12
5238;BME280;2639;49.700;7.962;2022-07-23T16:15:22;98881.72;;;32.42;39.06
5238;BME280;2639;49.700;7.962;2022-07-23T16:18:35;98876.84;;;32.82;38.59
5238;BME280;2639;49.700;7.962;2022-07-23T16:21:49;98882.63;;;33.17;38.76
5238;BME280;2639;49.700;7.962;2022-07-23T16:25:03;98872.13;;;33.04;37.80
5238;BME280;2639;49.700;7.962;2022-07-23T16:28:16;98874.94;;;32.90;37.85
5238;BME280;2639;49.700;7.962;2022-07-23T16:31:36;98877.22;;;32.48;38.91
5238;BME280;2639;49.700;7.962;2022-07-23T16:34:46;98884.81;;;32.00;39.26
5238;BME280;2639;49.700;7.962;2022-07-23T16:37:56;98875.31;;;31.73;40.04
5238;BME280;2639;49.700;7.962;2022-07-23T16:41:11;98879.88;;;31.51;40.39
5238;BME280;2639;49.700;7.962;2022-07-23T16:44:21;98894.38;;;30.95;41.21
5238;BME280;2639;49.700;7.962;2022-07-23T16:47:34;98892.75;;;30.57;42.43
5238;BME280;2639;49.700;7.962;2022-07-23T16:50:43;98897.09;;;30.72;41.98
5238;BME280;2639;49.700;7.962;2022-07-23T16:53:53;98897.94;;;30.94;42.15
5238;BME280;2639;49.700;7.962;2022-07-23T16:57:07;98892.56;;;31.00;41.72
5238;BME280;2639;49.700;7.962;2022-07-23T17:00:17;98897.88;;;31.03;40.93
5238;BME280;2639;49.700;7.962;2022-07-23T17:03:27;98904.19;;;30.71;42.30
5238;BME280;2639;49.700;7.962;2022-07-23T17:06:37;98900.75;;;30.34;42.39
5238;BME280;2639;49.700;7.962;2022-07-23T17:09:47;98904.31;;;30.17;43.62
5238;BME280;2639;49.700;7.962;2022-07-23T17:12:58;98899.88;;;30.12;43.45
5238;BME280;2639;49.700;7.962;2022-07-23T17:16:09;98906.06;;;30.06;43.99
5238;BME280;2639;49.700;7.962;2022-07-23T17:19:19;98900.81;;;29.94;45.28
5238;BME280;2639;49.700;7.962;2022-07-23T17:22:31;98909.63;;;29.76;46.88
5238;BME280;2639;49.700;7.962;2022-07-23T17:25:43;98908.72;;;29.62;48.34
5238;BME280;2639;49.700;7.962;2022-07-23T17:28:58;98913.09;;;29.44;49.48
5238;BME280;2639;49.700;7.962;2022-07-23T17:32:11;98905.13;;;29.26;50.02
5238;BME280;2639;49.700;7.962;2022-07-23T17:35:21;98912.06;;;29.05;50.21
5238;BME280;2639;49.700;7.962;2022-07-23T17:38:30;98917.25;;;28.74;51.19
5238;BME280;2639;49.700;7.962;2022-07-23T17:41:41;98910.22;;;28.75;51.30
5238;BME280;2639;49.700;7.962;2022-07-23T17:44:57;98909.34;;;28.74;51.04
5238;BME280;2639;49.700;7.962;2022-07-23T17:48:14;98911.97;;;28.74;51.44
5238;BME280;2639;49.700;7.962;2022-07-23T17:51:24;98915.41;;;28.58;52.08
5238;BME280;2639;49.700;7.962;2022-07-23T17:54:36;98922.31;;;28.36;52.09
5238;BME280;2639;49.700;7.962;2022-07-23T17:57:49;98924.06;;;28.32;53.69
5238;BME280;2639;49.700;7.962;2022-07-23T18:01:00;98933.66;;;28.18;54.02
5238;BME280;2639;49.700;7.962;2022-07-23T18:04:10;98929.16;;;28.08;54.33
5238;BME280;2639;49.700;7.962;2022-07-23T18:07:22;98931.78;;;28.05;55.62
5238;BME280;2639;49.700;7.962;2022-07-23T18:10:34;98937.00;;;27.99;55.53
5238;BME280;2639;49.700;7.962;2022-07-23T18:13:44;98946.63;;;27.87;55.28
5238;BME280;2639;49.700;7.962;2022-07-23T18:16:55;98939.41;;;27.74;55.79
5238;BME280;2639;49.700;7.962;2022-07-23T18:20:08;98939.25;;;27.56;56.24
5238;BME280;2639;49.700;7.962;2022-07-23T18:23:18;98944.31;;;27.36;56.68
5238;BME280;2639;49.700;7.962;2022-07-23T18:26:28;98950.19;;;27.12;57.46
5238;BME280;2639;49.700;7.962;2022-07-23T18:29:38;98954.38;;;26.96;57.00
5238;BME280;2639;49.700;7.962;2022-07-23T18:32:48;98958.50;;;26.75;57.91
5238;BME280;2639;49.700;7.962;2022-07-23T18:35:59;98957.31;;;26.53;57.86
5238;BME280;2639;49.700;7.962;2022-07-23T18:39:08;98957.03;;;26.36;59.38
5238;BME280;2639;49.700;7.962;2022-07-23T18:42:19;98963.91;;;26.27;59.86
5238;BME280;2639;49.700;7.962;2022-07-23T18:45:30;98965.41;;;26.09;58.89
5238;BME280;2639;49.700;7.962;2022-07-23T18:48:41;98973.00;;;25.92;59.06
5238;BME280;2639;49.700;7.962;2022-07-23T18:51:51;98973.56;;;25.74;60.03
5238;BME280;2639;49.700;7.962;2022-07-23T18:55:04;98974.19;;;25.61;59.98
5238;BME280;2639;49.700;7.962;2022-07-23T18:58:14;98979.31;;;25.53;60.53
5238;BME280;2639;49.700;7.962;2022-07-23T19:01:28;98980.91;;;25.44;60.45
5238;BME280;2639;49.700;7.962;2022-07-23T19:04:40;98978.09;;;25.36;61.06
5238;BME280;2639;49.700;7.962;2022-07-23T19:07:50;98981.41;;;25.26;61.36
5238;BME280;2639;49.700;7.962;2022-07-23T19:11:00;98982.00;;;25.12;60.92
5238;BME280;2639;49.700;7.962;2022-07-23T19:14:10;98985.94;;;24.92;62.85
5238;BME280;2639;49.700;7.962;2022-07-23T19:17:22;98991.72;;;24.75;63.87
5238;BME280;2639;49.700;7.962;2022-07-23T19:20:33;98993.97;;;24.59;64.25
5238;BME280;2639;49.700;7.962;2022-07-23T19:23:43;98991.97;;;24.48;65.57
5238;BME280;2639;49.700;7.962;2022-07-23T19:26:54;98998.63;;;24.34;65.90
5238;BME280;2639;49.700;7.962;2022-07-23T19:30:05;99012.19;;;24.16;66.73
5238;BME280;2639;49.700;7.962;2022-07-23T19:33:22;99023.94;;;23.97;67.12
5238;BME280;2639;49.700;7.962;2022-07-23T19:36:37;99028.00;;;23.84;66.72
5238;BME280;2639;49.700;7.962;2022-07-23T19:39:46;99041.81;;;23.79;67.62
5238;BME280;2639;49.700;7.962;2022-07-23T19:42:58;99048.50;;;23.67;67.50
5238;BME280;2639;49.700;7.962;2022-07-23T19:46:10;99053.31;;;23.52;67.92
5238;BME280;2639;49.700;7.962;2022-07-23T19:49:26;99060.09;;;23.45;68.76
5238;BME280;2639;49.700;7.962;2022-07-23T19:52:38;99057.28;;;23.38;67.94
5238;BME280;2639;49.700;7.962;2022-07-23T19:55:48;99061.25;;;23.25;68.98
5238;BME280;2639;49.700;7.962;2022-07-23T19:58:58;99065.88;;;23.03;69.47
5238;BME280;2639;49.700;7.962;2022-07-23T20:02:08;99064.41;;;22.84;70.46
5238;BME280;2639;49.700;7.962;2022-07-23T20:05:18;99072.63;;;22.68;70.27
5238;BME280;2639;49.700;7.962;2022-07-23T20:08:36;99074.81;;;22.56;71.18
5238;BME280;2639;49.700;7.962;2022-07-23T20:11:46;99082.28;;;22.43;71.19
5238;BME280;2639;49.700;7.962;2022-07-23T20:14:56;99078.53;;;22.35;71.69
5238;BME280;2639;49.700;7.962;2022-07-23T20:18:06;99080.09;;;22.30;72.78
5238;BME280;2639;49.700;7.962;2022-07-23T20:21:16;99084.25;;;22.23;72.15
5238;BME280;2639;49.700;7.962;2022-07-23T20:24:27;99081.00;;;22.06;72.48
5238;BME280;2639;49.700;7.962;2022-07-23T20:27:39;99084.81;;;21.91;73.07
5238;BME280;2639;49.700;7.962;2022-07-23T20:30:49;99091.97;;;21.71;72.61
5238;BME280;2639;49.700;7.962;2022-07-23T20:33:59;99098.09;;;21.47;73.18
5238;BME280;2639;49.700;7.962;2022-07-23T20:37:12;99097.97;;;21.21;75.84
5238;BME280;2639;49.700;7.962;2022-07-23T20:40:25;99100.88;;;21.07;75.89
5238;BME280;2639;49.700;7.962;2022-07-23T20:43:37;99106.50;;;20.95;76.61
5238;BME280;2639;49.700;7.962;2022-07-23T20:46:47;99105.31;;;20.87;76.31
5238;BME280;2639;49.700;7.962;2022-07-23T20:49:57;99107.94;;;20.87;76.44
5238;BME280;2639;49.700;7.962;2022-07-23T20:53:07;99111.31;;;20.84;76.81
5238;BME280;2639;49.700;7.962;2022-07-23T20:56:20;99116.22;;;20.76;76.87
5238;BME280;2639;49.700;7.962;2022-07-23T20:59:33;99115.72;;;20.64;77.08
5238;BME280;2639;49.700;7.962;2022-07-23T21:02:43;99120.28;;;20.49;76.63
5238;BME280;2639;49.700;7.962;2022-07-23T21:05:55;99119.78;;;20.36;76.63
5238;BME280;2639;49.700;7.962;2022-07-23T21:09:05;99133.13;;;20.23;77.02
5238;BME280;2639;49.700;7.962;2022-07-23T21:12:17;99139.84;;;20.18;77.09
5238;BME280;2639;49.700;7.962;2022-07-23T21:15:26;99144.78;;;20.12;77.35
5238;BME280;2639;49.700;7.962;2022-07-23T21:18:36;99141.09;;;20.07;77.64
5238;BME280;2639;49.700;7.962;2022-07-23T21:21:46;99137.69;;;20.08;78.67
5238;BME280;2639;49.700;7.962;2022-07-23T21:24:56;99134.63;;;20.18;77.94
5238;BME280;2639;49.700;7.962;2022-07-23T21:28:07;99136.28;;;20.16;77.94
5238;BME280;2639;49.700;7.962;2022-07-23T21:31:17;99141.38;;;20.13;77.92
5238;BME280;2639;49.700;7.962;2022-07-23T21:34:29;99143.03;;;20.11;77.86
5238;BME280;2639;49.700;7.962;2022-07-23T21:37:39;99153.84;;;20.20;78.18
5238;BME280;2639;49.700;7.962;2022-07-23T21:40:48;99144.94;;;20.15;76.44
5238;BME280;2639;49.700;7.962;2022-07-23T21:43:59;99154.41;;;20.13;76.13
5238;BME280;2639;49.700;7.962;2022-07-23T21:47:10;99153.56;;;20.14;76.50
5238;BME280;2639;49.700;7.962;2022-07-23T21:50:20;99149.53;;;20.21;76.69
5238;BME280;2639;49.700;7.962;2022-07-23T21:53:35;99159.94;;;20.21;76.75
5238;BME280;2639;49.700;7.962;2022-07-23T21:56:53;99155.56;;;20.20;76.51
5238;BME280;2639;49.700;7.962;2022-07-23T22:00:06;99157.16;;;20.16;77.22
5238;BME280;2639;49.700;7.962;2022-07-23T22:03:20;99164.91;;;20.14;77.05
5238;BME280;2639;49.700;7.962;2022-07-23T22:06:32;99175.28;;;20.13;76.87
